Pulga, California
Current Conditions -  °F | °C
As of 4:53 AM on Sunday 23 Nov 2014 (Local Time) from KOVE Reporting Station
Clear Clear  
Wind Chill: 41°   Ceiling: Unl
Heat Index: 44°   Visibility: 10mi
Dew Point: 39°   Wind: 6mph
Humidity: 82%   Direction: 300°WNW
Pressure: 30.31"   Gusts: NA
Location:  39.5324°N, 121.648°W
Report Text: KOVE 231253Z AUTO 30005KT 10SM CLR 07/04 A3031 RMK AO2 SLP266 T00670039
Loading
Personal Weather Stations






























Interactive Weather Map New forecast layout! Learn more

10-Day Weather Forecast

Advertisements
Track Severe Weather on mobile